Portada
METAR-TAF:

METAR-TAF

Aeropuertos :

Aeropuerto Internacional de Dakar-Yoff/Léopold Sédar Senghor

Dakar, Senegal

latitud: 14-44N, longitud: 017-30W, altitud: 27 m

Observación

El informe se hizo hace 57 minutos, a las 10:00 UTC
Viento 4 kt del noroeste
Temperatura 29°C
Humedad 79%
Presión 1013 hPa
Visibilidad 10 km o más
Nubes dispersas a una altura de 1500 ft

METAR: GOOY 231000Z 32004KT 9999 SCT015 29/25 Q1013

Hora: 10:57 (10:57 UTC)

Pronóstico

El informe se hizo hace 5 horas y 57 minutos, a las 05:00 UTC
Pronóstico válido del 23 a las 06 UTC al 24 a las 12 UTC
Viento 6 kt del noroeste
Visibilidad 10 km o más
Nubes dispersas a una altura de 1300 ft

TAF: GOOY 230500Z 2306/2412 32006KT 9999 SCT013

Observaciones y pronósticos meteorológicos de más de 4000 aeropuertos (mensajes METAR y TAF).

Los puntos amarillos y rojos representan las estaciones disponibles.

Ponga el ratón en el punto deseado para ver el nombre de la estación.

Haga clic para ver las observaciones y los pronósticos meteorológicos.

Para cambiar el mapa : haga clic en los botones verdes con una cruz de color negro para hacer un zoom, en el botón verde con un guión para alejar o en las flechas verdes para mapas adyacentes.


METAR-TAF: